Racecast

Zencia Boulai

Inderkum (CA) · 10 · STS · Compare head to head

Athlete rating
Races 27
Seasons 2 2014 — 2015
Speed rating — all races

Track & Field

TF speed rating

2015 TF

Inderkum (CA) · Grade 10

Date Meet Event Result Place Rating Difficulty PR/SR Flags
2015-05-22 Sac Joaquin Section Division II-III Finals 100m 13.13 8th · 1st on team -0.036
2015-05-20 Sac Joaquin Section Division II-III Prelims 100m 13.01 8th · 1st on team -0.036
2015-05-14 TCC League Championships 200m 27.94 6th · 3rd on team -0.013 ★PR SR
2015-05-14 TCC League Championships 100m 12.88 2nd · 1st on team -0.013
2015-05-08 Nevada Union Invitational 100m 12.85 3rd · 1st on team -0.015
2015-05-02 Sacramento Meet of Champions 100m 12.87 24th · 1st on team -0.034
2015-04-18 Lancer Invitational 100m 12.84 1st · 1st on team -0.031 ★PR SR
2015-04-14 TCC League meet #2 200m 28.13 8th · 4th on team -0.020 PR SR
2015-04-14 TCC League meet #2 100m 13.1 2nd · 1st on team -0.020 PR SR
2015-03-24 Tri-County league meet 200m 28.73 7th · 3rd on team -0.005 PR SR
2015-03-24 Tri-County league meet 100m 13.24 3rd · 1st on team -0.005
2015-03-14 Welton "Moe" Moore Relays 100m 13.42 3rd · 1st on team -0.014
2015-03-07 Vallejo Relays 100m 13.21 3rd · 1st on team -0.019 PR SR

2014 TF

Sacramento Speed Factory (CA) · Grade 15-16

Date Meet Event Result Place Rating Difficulty PR/SR Flags
2014-05-31 Pacific Association Championships (PAC) 100m 13.53 8th · 2nd on team -0.024 PR SR
2014-05-31 Pacific Association Championships (PAC) 100m 13.47 6th · 1st on team -0.024 PR SR
2014-05-24 Central Valley Roadrunners 200m 29.35 17th · 5th on team -0.026 PR SR
2014-05-03 Hercules Running Rebels/Top Pacers Inv. 100m 14.13 3rd · 3rd on team -0.038
2014-04-26 Revolution Express TC 400m 1:12.57 4th · 2nd on team -0.024 ★PR SR
2014-04-26 Revolution Express TC 200m 29.4 2nd · 1st on team -0.024 PR SR
2014-04-26 Revolution Express TC 100m 13.76 2nd · 1st on team -0.024
2014-04-05 Sacramento Speed Showcase 100m 13.68 5th · 2nd on team -0.033 PR SR
2014-04-05 Sacramento Speed Showcase 200m 29.43 6th · 3rd on team -0.033 PR SR
2014-03-22 RPM 400m 1:12.84 3rd · 1st on team -0.012 PR SR
2014-03-22 RPM 100m 14.54 3rd · 1st on team -0.012
2014-03-01 RETC Practice Meet 400m 1:20.2 10th · 4th on team -0.024 PR SR
2014-03-01 RETC Practice Meet 200m 31.9 5th · 4th on team -0.024 PR SR
2014-03-01 RETC Practice Meet 100m 14.5 3rd · 2nd on team -0.024 PR SR